sensor_id;sensor_type;location;lat;lon;timestamp;pressure;altitude;pressure_sealevel;temperature;humidity
68988;BME280;56038;46.080;11.116;2022-10-16T00:01:52;99739.03;;;16.94;69.63
68988;BME280;56038;46.080;11.116;2022-10-16T00:06:55;99733.84;;;16.93;69.84
68988;BME280;56038;46.080;11.116;2022-10-16T00:11:56;99735.66;;;16.92;69.90
68988;BME280;56038;46.080;11.116;2022-10-16T00:16:58;99734.81;;;16.92;70.33
68988;BME280;56038;46.080;11.116;2022-10-16T00:22:01;99738.16;;;16.80;70.42
68988;BME280;56038;46.080;11.116;2022-10-16T00:27:03;99741.38;;;16.85;70.85
68988;BME280;56038;46.080;11.116;2022-10-16T00:32:05;99746.66;;;16.85;70.85
68988;BME280;56038;46.080;11.116;2022-10-16T00:37:08;99752.09;;;16.82;70.40
68988;BME280;56038;46.080;11.116;2022-10-16T00:42:14;99767.28;;;16.78;70.99
68988;BME280;56038;46.080;11.116;2022-10-16T00:47:21;99765.50;;;16.79;71.08
68988;BME280;56038;46.080;11.116;2022-10-16T00:52:25;99760.13;;;16.80;70.86
68988;BME280;56038;46.080;11.116;2022-10-16T00:57:27;99774.34;;;16.77;71.30
68988;BME280;56038;46.080;11.116;2022-10-16T01:02:29;99777.84;;;16.78;71.07
68988;BME280;56038;46.080;11.116;2022-10-16T01:07:41;99772.75;;;16.75;71.36
68988;BME280;56038;46.080;11.116;2022-10-16T01:12:47;99775.47;;;16.73;71.50
68988;BME280;56038;46.080;11.116;2022-10-16T01:17:53;99772.06;;;16.71;71.54
68988;BME280;56038;46.080;11.116;2022-10-16T01:23:05;99770.34;;;16.70;71.84
68988;BME280;56038;46.080;11.116;2022-10-16T01:28:11;99776.56;;;16.69;72.18
68988;BME280;56038;46.080;11.116;2022-10-16T01:33:17;99782.19;;;16.63;72.17
68988;BME280;56038;46.080;11.116;2022-10-16T01:38:25;99773.44;;;16.63;72.25
68988;BME280;56038;46.080;11.116;2022-10-16T01:43:33;99786.72;;;16.61;72.25
68988;BME280;56038;46.080;11.116;2022-10-16T01:48:38;99781.44;;;16.61;72.44
68988;BME280;56038;46.080;11.116;2022-10-16T01:53:41;99776.34;;;16.58;72.39
68988;BME280;56038;46.080;11.116;2022-10-16T01:58:48;99787.41;;;16.49;72.43
68988;BME280;56038;46.080;11.116;2022-10-16T02:03:54;99790.72;;;16.53;72.31
68988;BME280;56038;46.080;11.116;2022-10-16T02:08:58;99785.34;;;16.54;72.38
68988;BME280;56038;46.080;11.116;2022-10-16T02:14:04;99789.88;;;16.52;72.62
68988;BME280;56038;46.080;11.116;2022-10-16T02:19:06;99789.19;;;16.48;72.50
68988;BME280;56038;46.080;11.116;2022-10-16T02:24:12;99784.78;;;16.49;72.43
68988;BME280;56038;46.080;11.116;2022-10-16T02:29:22;99783.16;;;16.46;72.76
68988;BME280;56038;46.080;11.116;2022-10-16T02:34:26;99791.16;;;16.45;72.83
68988;BME280;56038;46.080;11.116;2022-10-16T02:39:29;99785.13;;;16.43;72.96
68988;BME280;56038;46.080;11.116;2022-10-16T02:44:33;99792.91;;;16.30;73.47
68988;BME280;56038;46.080;11.116;2022-10-16T02:49:34;99794.06;;;16.25;73.03
68988;BME280;56038;46.080;11.116;2022-10-16T02:54:36;99796.28;;;16.32;72.59
68988;BME280;56038;46.080;11.116;2022-10-16T02:59:39;99801.75;;;16.29;73.00
68988;BME280;56038;46.080;11.116;2022-10-16T03:04:41;99800.97;;;16.27;73.28
68988;BME280;56038;46.080;11.116;2022-10-16T03:09:43;99798.59;;;16.23;73.53
68988;BME280;56038;46.080;11.116;2022-10-16T03:14:46;99813.06;;;16.15;73.58
68988;BME280;56038;46.080;11.116;2022-10-16T03:19:48;99812.22;;;16.15;73.58
68988;BME280;56038;46.080;11.116;2022-10-16T03:24:50;99810.41;;;16.15;73.59
68988;BME280;56038;46.080;11.116;2022-10-16T03:29:53;99813.06;;;16.15;73.47
68988;BME280;56038;46.080;11.116;2022-10-16T03:34:55;99806.00;;;16.16;73.23
68988;BME280;56038;46.080;11.116;2022-10-16T03:39:57;99809.84;;;16.10;73.96
68988;BME280;56038;46.080;11.116;2022-10-16T03:45:01;99814.16;;;15.96;74.24
68988;BME280;56038;46.080;11.116;2022-10-16T03:50:04;99818.75;;;15.92;74.25
68988;BME280;56038;46.080;11.116;2022-10-16T03:55:07;99818.25;;;16.01;74.09
68988;BME280;56038;46.080;11.116;2022-10-16T04:00:12;99820.03;;;16.01;74.09
68988;BME280;56038;46.080;11.116;2022-10-16T04:05:14;99820.28;;;15.96;74.30
68988;BME280;56038;46.080;11.116;2022-10-16T04:10:16;99824.81;;;15.94;74.29
68988;BME280;56038;46.080;11.116;2022-10-16T04:15:19;99821.53;;;15.89;74.13
68988;BME280;56038;46.080;11.116;2022-10-16T04:20:21;99837.44;;;15.87;74.88
68988;BME280;56038;46.080;11.116;2022-10-16T04:25:23;99833.19;;;15.85;74.71
68988;BME280;56038;46.080;11.116;2022-10-16T04:30:26;99840.34;;;15.83;74.48
68988;BME280;56038;46.080;11.116;2022-10-16T04:35:28;99842.97;;;15.83;74.72
68988;BME280;56038;46.080;11.116;2022-10-16T04:40:30;99835.25;;;15.80;74.29
68988;BME280;56038;46.080;11.116;2022-10-16T04:45:34;99841.34;;;15.80;74.50
68988;BME280;56038;46.080;11.116;2022-10-16T04:50:36;99844.91;;;15.79;74.72
68988;BME280;56038;46.080;11.116;2022-10-16T04:55:38;99854.59;;;15.79;74.50
68988;BME280;56038;46.080;11.116;2022-10-16T05:00:41;99852.88;;;15.78;75.03
68988;BME280;56038;46.080;11.116;2022-10-16T05:05:44;99863.59;;;15.75;75.20
68988;BME280;56038;46.080;11.116;2022-10-16T05:10:46;99859.34;;;15.72;74.82
68988;BME280;56038;46.080;11.116;2022-10-16T05:15:49;99864.09;;;15.66;75.28
68988;BME280;56038;46.080;11.116;2022-10-16T05:20:51;99858.81;;;15.66;75.13
68988;BME280;56038;46.080;11.116;2022-10-16T05:25:53;99863.94;;;15.69;75.34
68988;BME280;56038;46.080;11.116;2022-10-16T05:30:57;99878.09;;;15.66;75.24
68988;BME280;56038;46.080;11.116;2022-10-16T05:36:01;99883.47;;;15.65;75.02
68988;BME280;56038;46.080;11.116;2022-10-16T05:41:04;99885.25;;;15.64;75.03
68988;BME280;56038;46.080;11.116;2022-10-16T05:46:07;99892.28;;;15.64;75.09
68988;BME280;56038;46.080;11.116;2022-10-16T05:51:10;99894.94;;;15.64;75.08
68988;BME280;56038;46.080;11.116;2022-10-16T05:56:12;99899.25;;;15.65;74.79
68988;BME280;56038;46.080;11.116;2022-10-16T06:01:17;99906.22;;;15.66;75.00
68988;BME280;56038;46.080;11.116;2022-10-16T06:06:20;99911.59;;;15.64;74.93
68988;BME280;56038;46.080;11.116;2022-10-16T06:11:24;99904.66;;;15.62;74.76
68988;BME280;56038;46.080;11.116;2022-10-16T06:16:28;99919.47;;;15.64;75.19
68988;BME280;56038;46.080;11.116;2022-10-16T06:21:30;99920.94;;;15.70;75.33
68988;BME280;56038;46.080;11.116;2022-10-16T06:26:31;99940.22;;;15.70;75.52
68988;BME280;56038;46.080;11.116;2022-10-16T06:31:35;99947.03;;;15.74;75.39
68988;BME280;56038;46.080;11.116;2022-10-16T06:36:37;99954.25;;;15.71;75.64
68988;BME280;56038;46.080;11.116;2022-10-16T06:41:39;99953.91;;;15.77;75.46
68988;BME280;56038;46.080;11.116;2022-10-16T06:46:42;99960.81;;;15.79;75.49
68988;BME280;56038;46.080;11.116;2022-10-16T06:51:44;99968.56;;;15.82;75.13
68988;BME280;56038;46.080;11.116;2022-10-16T06:56:46;99970.25;;;15.83;75.02
68988;BME280;56038;46.080;11.116;2022-10-16T07:01:49;99986.50;;;15.92;75.42
68988;BME280;56038;46.080;11.116;2022-10-16T07:06:50;99989.84;;;15.95;75.53
68988;BME280;56038;46.080;11.116;2022-10-16T07:11:52;99992.25;;;16.00;75.35
68988;BME280;56038;46.080;11.116;2022-10-16T07:16:55;99991.06;;;16.05;75.16
68988;BME280;56038;46.080;11.116;2022-10-16T07:21:57;99996.88;;;16.12;74.82
68988;BME280;56038;46.080;11.116;2022-10-16T07:26:59;99994.84;;;16.17;75.08
68988;BME280;56038;46.080;11.116;2022-10-16T07:32:02;100005.91;;;16.24;74.52
68988;BME280;56038;46.080;11.116;2022-10-16T07:37:04;100007.38;;;16.29;74.51
68988;BME280;56038;46.080;11.116;2022-10-16T07:42:06;100025.28;;;16.23;74.59
68988;BME280;56038;46.080;11.116;2022-10-16T07:47:09;100025.66;;;16.32;74.03
68988;BME280;56038;46.080;11.116;2022-10-16T07:52:11;100026.50;;;16.33;74.01
68988;BME280;56038;46.080;11.116;2022-10-16T07:57:13;100039.53;;;16.36;73.86
68988;BME280;56038;46.080;11.116;2022-10-16T08:02:20;100042.69;;;16.42;74.17
68988;BME280;56038;46.080;11.116;2022-10-16T08:07:22;100039.91;;;16.61;73.56
68988;BME280;56038;46.080;11.116;2022-10-16T08:12:24;100041.44;;;16.65;73.92
68988;BME280;56038;46.080;11.116;2022-10-16T08:17:27;100035.63;;;16.76;72.83
68988;BME280;56038;46.080;11.116;2022-10-16T08:22:29;100033.56;;;16.81;71.94
68988;BME280;56038;46.080;11.116;2022-10-16T08:27:31;100035.09;;;17.01;71.14
68988;BME280;56038;46.080;11.116;2022-10-16T08:32:35;100040.72;;;16.95;71.36
68988;BME280;56038;46.080;11.116;2022-10-16T08:37:37;100044.56;;;17.05;70.88
68988;BME280;56038;46.080;11.116;2022-10-16T08:42:51;100042.31;;;17.29;70.03
68988;BME280;56038;46.080;11.116;2022-10-16T08:48:08;100043.09;;;17.31;69.89
68988;BME280;56038;46.080;11.116;2022-10-16T08:53:17;100046.28;;;17.52;69.59
68988;BME280;56038;46.080;11.116;2022-10-16T08:58:21;100035.06;;;17.78;68.22
68988;BME280;56038;46.080;11.116;2022-10-16T09:03:38;100035.19;;;17.91;67.74
68988;BME280;56038;46.080;11.116;2022-10-16T09:08:54;100028.03;;;18.07;67.66
68988;BME280;56038;46.080;11.116;2022-10-16T09:14:03;100018.69;;;18.30;67.33
68988;BME280;56038;46.080;11.116;2022-10-16T09:19:15;100014.44;;;18.56;66.71
68988;BME280;56038;46.080;11.116;2022-10-16T09:24:25;100001.97;;;18.72;64.99
68988;BME280;56038;46.080;11.116;2022-10-16T09:29:26;100012.84;;;19.09;64.27
68988;BME280;56038;46.080;11.116;2022-10-16T09:34:32;100015.63;;;19.47;61.93
68988;BME280;56038;46.080;11.116;2022-10-16T09:39:44;100005.75;;;20.14;61.51
68988;BME280;56038;46.080;11.116;2022-10-16T09:44:48;100010.41;;;21.35;57.10
68988;BME280;56038;46.080;11.116;2022-10-16T09:49:52;100002.03;;;22.21;54.05
68988;BME280;56038;46.080;11.116;2022-10-16T09:54:57;100005.75;;;23.40;50.50
68988;BME280;56038;46.080;11.116;2022-10-16T09:59:59;100007.84;;;23.68;48.80
68988;BME280;56038;46.080;11.116;2022-10-16T10:05:04;99990.31;;;24.47;47.59
68988;BME280;56038;46.080;11.116;2022-10-16T10:10:20;99988.22;;;25.01;45.70
68988;BME280;56038;46.080;11.116;2022-10-16T10:15:22;99989.22;;;25.29;44.94
68988;BME280;56038;46.080;11.116;2022-10-16T10:20:28;99983.28;;;25.54;44.66
68988;BME280;56038;46.080;11.116;2022-10-16T10:25:45;99970.28;;;26.08;43.25
68988;BME280;56038;46.080;11.116;2022-10-16T10:30:57;99975.13;;;25.65;43.10
68988;BME280;56038;46.080;11.116;2022-10-16T10:36:11;99965.81;;;26.63;42.13
68988;BME280;56038;46.080;11.116;2022-10-16T10:41:32;99972.88;;;27.09;41.13
68988;BME280;56038;46.080;11.116;2022-10-16T10:46:41;99968.97;;;27.39;40.69
68988;BME280;56038;46.080;11.116;2022-10-16T10:51:55;99959.44;;;27.63;39.81
68988;BME280;56038;46.080;11.116;2022-10-16T10:57:09;99947.88;;;27.88;39.04
68988;BME280;56038;46.080;11.116;2022-10-16T11:02:17;99941.59;;;28.40;38.12
68988;BME280;56038;46.080;11.116;2022-10-16T11:07:25;99933.56;;;28.40;38.49
68988;BME280;56038;46.080;11.116;2022-10-16T11:12:31;99929.09;;;28.64;36.73
68988;BME280;56038;46.080;11.116;2022-10-16T11:17:38;99931.56;;;28.92;36.15
68988;BME280;56038;46.080;11.116;2022-10-16T11:22:45;99912.25;;;28.12;37.71
68988;BME280;56038;46.080;11.116;2022-10-16T11:27:51;99925.94;;;28.77;35.97
68988;BME280;56038;46.080;11.116;2022-10-16T11:33:20;99919.38;;;28.72;35.02
68988;BME280;56038;46.080;11.116;2022-10-16T11:38:29;99911.44;;;28.54;37.39
68988;BME280;56038;46.080;11.116;2022-10-16T11:43:37;99897.97;;;29.20;35.56
68988;BME280;56038;46.080;11.116;2022-10-16T11:48:45;99902.66;;;27.75;36.82
68988;BME280;56038;46.080;11.116;2022-10-16T11:53:56;99881.28;;;29.01;35.71
68988;BME280;56038;46.080;11.116;2022-10-16T11:59:03;99879.28;;;29.27;35.23
68988;BME280;56038;46.080;11.116;2022-10-16T12:04:19;99870.50;;;29.33;36.82
68988;BME280;56038;46.080;11.116;2022-10-16T12:09:27;99873.34;;;29.64;33.98
68988;BME280;56038;46.080;11.116;2022-10-16T12:14:37;99866.59;;;29.76;35.83
68988;BME280;56038;46.080;11.116;2022-10-16T12:19:40;99857.66;;;29.84;34.69
68988;BME280;56038;46.080;11.116;2022-10-16T12:24:43;99869.19;;;28.97;33.03
68988;BME280;56038;46.080;11.116;2022-10-16T12:29:45;99854.41;;;28.92;33.57
68988;BME280;56038;46.080;11.116;2022-10-16T12:34:47;99860.00;;;28.07;35.38
68988;BME280;56038;46.080;11.116;2022-10-16T12:39:52;99868.44;;;28.12;35.22
68988;BME280;56038;46.080;11.116;2022-10-16T12:44:55;99862.16;;;28.37;32.77
68988;BME280;56038;46.080;11.116;2022-10-16T12:49:57;99860.53;;;28.44;30.11
68988;BME280;56038;46.080;11.116;2022-10-16T12:55:01;99852.50;;;28.85;31.94
68988;BME280;56038;46.080;11.116;2022-10-16T13:00:04;99864.16;;;29.10;29.42
68988;BME280;56038;46.080;11.116;2022-10-16T13:05:22;99860.97;;;28.90;29.86
68988;BME280;56038;46.080;11.116;2022-10-16T13:10:35;99873.56;;;29.14;29.28
68988;BME280;56038;46.080;11.116;2022-10-16T13:15:52;99865.44;;;29.63;30.08
68988;BME280;56038;46.080;11.116;2022-10-16T13:21:06;99866.16;;;29.48;27.96
68988;BME280;56038;46.080;11.116;2022-10-16T13:26:19;99878.38;;;28.61;30.06
68988;BME280;56038;46.080;11.116;2022-10-16T13:31:25;99879.13;;;28.03;31.60
68988;BME280;56038;46.080;11.116;2022-10-16T13:36:28;99884.16;;;27.64;32.24
68988;BME280;56038;46.080;11.116;2022-10-16T13:41:31;99892.56;;;27.26;34.09
68988;BME280;56038;46.080;11.116;2022-10-16T13:46:33;99893.22;;;26.29;37.12
68988;BME280;56038;46.080;11.116;2022-10-16T13:51:34;99887.63;;;26.22;37.95
68988;BME280;56038;46.080;11.116;2022-10-16T13:56:39;99897.09;;;25.80;38.83
68988;BME280;56038;46.080;11.116;2022-10-16T14:01:43;99888.75;;;25.17;40.50
68988;BME280;56038;46.080;11.116;2022-10-16T14:06:46;99895.47;;;24.63;41.63
68988;BME280;56038;46.080;11.116;2022-10-16T14:11:53;99902.13;;;24.38;42.66
68988;BME280;56038;46.080;11.116;2022-10-16T14:16:57;99892.19;;;24.09;43.90
68988;BME280;56038;46.080;11.116;2022-10-16T14:21:59;99892.69;;;23.94;45.26
68988;BME280;56038;46.080;11.116;2022-10-16T14:27:23;99896.25;;;23.73;46.41
68988;BME280;56038;46.080;11.116;2022-10-16T14:32:26;99902.88;;;23.37;47.05
68988;BME280;56038;46.080;11.116;2022-10-16T14:37:29;99906.69;;;23.23;47.28
68988;BME280;56038;46.080;11.116;2022-10-16T14:42:33;99904.06;;;22.91;47.59
68988;BME280;56038;46.080;11.116;2022-10-16T14:47:36;99909.44;;;23.01;47.80
68988;BME280;56038;46.080;11.116;2022-10-16T14:52:47;99913.63;;;22.71;48.65
68988;BME280;56038;46.080;11.116;2022-10-16T14:57:51;99905.41;;;22.75;48.51
68988;BME280;56038;46.080;11.116;2022-10-16T15:02:52;99910.59;;;22.22;50.01
68988;BME280;56038;46.080;11.116;2022-10-16T15:07:54;99913.59;;;22.39;49.60
68988;BME280;56038;46.080;11.116;2022-10-16T15:12:58;99920.50;;;22.31;49.58
68988;BME280;56038;46.080;11.116;2022-10-16T15:18:00;99923.66;;;22.14;50.20
68988;BME280;56038;46.080;11.116;2022-10-16T15:23:04;99926.50;;;21.77;51.61
68988;BME280;56038;46.080;11.116;2022-10-16T15:28:09;99932.06;;;21.63;51.78
68988;BME280;56038;46.080;11.116;2022-10-16T15:33:14;99927.88;;;21.36;53.07
68988;BME280;56038;46.080;11.116;2022-10-16T15:38:17;99943.81;;;21.12;54.00
68988;BME280;56038;46.080;11.116;2022-10-16T15:43:20;99948.28;;;21.12;53.60
68988;BME280;56038;46.080;11.116;2022-10-16T15:48:22;99952.78;;;20.87;55.06
68988;BME280;56038;46.080;11.116;2022-10-16T15:53:24;99955.19;;;20.90;54.62
68988;BME280;56038;46.080;11.116;2022-10-16T15:58:28;99963.63;;;20.84;55.09
68988;BME280;56038;46.080;11.116;2022-10-16T16:03:31;99971.91;;;20.43;56.55
68988;BME280;56038;46.080;11.116;2022-10-16T16:08:33;99975.00;;;20.24;57.08
68988;BME280;56038;46.080;11.116;2022-10-16T16:13:37;99989.41;;;20.46;56.49
68988;BME280;56038;46.080;11.116;2022-10-16T16:18:39;99993.56;;;20.37;56.96
68988;BME280;56038;46.080;11.116;2022-10-16T16:23:47;99994.53;;;20.23;56.76
68988;BME280;56038;46.080;11.116;2022-10-16T16:28:50;100000.16;;;20.06;57.50
68988;BME280;56038;46.080;11.116;2022-10-16T16:33:52;100011.50;;;20.08;57.54
68988;BME280;56038;46.080;11.116;2022-10-16T16:38:54;100025.91;;;19.91;57.30
68988;BME280;56038;46.080;11.116;2022-10-16T16:44:01;100030.91;;;19.96;58.43
68988;BME280;56038;46.080;11.116;2022-10-16T16:49:03;100030.47;;;19.89;58.76
68988;BME280;56038;46.080;11.116;2022-10-16T16:54:06;100039.22;;;19.64;58.87
68988;BME280;56038;46.080;11.116;2022-10-16T16:59:12;100058.75;;;19.63;59.23
68988;BME280;56038;46.080;11.116;2022-10-16T17:04:15;100071.59;;;19.42;59.88
68988;BME280;56038;46.080;11.116;2022-10-16T17:09:17;100076.94;;;19.55;59.03
68988;BME280;56038;46.080;11.116;2022-10-16T17:14:20;100086.72;;;19.67;59.26
68988;BME280;56038;46.080;11.116;2022-10-16T17:19:22;100089.06;;;19.59;58.98
68988;BME280;56038;46.080;11.116;2022-10-16T17:24:23;100093.97;;;19.51;59.97
68988;BME280;56038;46.080;11.116;2022-10-16T17:29:27;100105.63;;;19.49;60.22
68988;BME280;56038;46.080;11.116;2022-10-16T17:34:28;100113.13;;;19.42;59.86
68988;BME280;56038;46.080;11.116;2022-10-16T17:39:30;100115.41;;;19.34;59.98
68988;BME280;56038;46.080;11.116;2022-10-16T17:44:33;100129.22;;;19.25;60.41
68988;BME280;56038;46.080;11.116;2022-10-16T17:49:35;100134.56;;;19.10;60.60
68988;BME280;56038;46.080;11.116;2022-10-16T17:54:37;100134.38;;;19.13;60.51
68988;BME280;56038;46.080;11.116;2022-10-16T17:59:40;100150.72;;;19.06;60.62
68988;BME280;56038;46.080;11.116;2022-10-16T18:04:42;100150.94;;;19.03;60.66
68988;BME280;56038;46.080;11.116;2022-10-16T18:09:44;100157.56;;;18.96;61.14
68988;BME280;56038;46.080;11.116;2022-10-16T18:14:47;100171.00;;;18.78;62.02
68988;BME280;56038;46.080;11.116;2022-10-16T18:19:49;100177.88;;;18.67;61.90
68988;BME280;56038;46.080;11.116;2022-10-16T18:24:51;100187.38;;;18.55;62.49
68988;BME280;56038;46.080;11.116;2022-10-16T18:29:54;100189.63;;;18.47;62.60
68988;BME280;56038;46.080;11.116;2022-10-16T18:34:57;100195.78;;;18.47;62.44
68988;BME280;56038;46.080;11.116;2022-10-16T18:39:58;100196.78;;;18.45;62.41
68988;BME280;56038;46.080;11.116;2022-10-16T18:45:02;100205.72;;;18.28;63.33
68988;BME280;56038;46.080;11.116;2022-10-16T18:50:04;100213.16;;;18.21;63.50
68988;BME280;56038;46.080;11.116;2022-10-16T18:55:08;100220.25;;;18.21;63.19
68988;BME280;56038;46.080;11.116;2022-10-16T19:00:14;100223.59;;;18.09;63.89
68988;BME280;56038;46.080;11.116;2022-10-16T19:05:17;100233.00;;;17.99;64.72
68988;BME280;56038;46.080;11.116;2022-10-16T19:10:20;100243.25;;;17.89;64.67
68988;BME280;56038;46.080;11.116;2022-10-16T19:15:23;100250.91;;;17.78;65.37
68988;BME280;56038;46.080;11.116;2022-10-16T19:20:25;100249.31;;;17.75;65.22
68988;BME280;56038;46.080;11.116;2022-10-16T19:25:26;100254.63;;;17.58;66.19
68988;BME280;56038;46.080;11.116;2022-10-16T19:30:29;100258.81;;;17.62;65.38
68988;BME280;56038;46.080;11.116;2022-10-16T19:35:32;100269.09;;;17.68;65.53
68988;BME280;56038;46.080;11.116;2022-10-16T19:40:34;100272.00;;;17.62;65.70
68988;BME280;56038;46.080;11.116;2022-10-16T19:45:37;100282.75;;;17.59;65.83
68988;BME280;56038;46.080;11.116;2022-10-16T19:50:45;100285.97;;;17.48;66.09
68988;BME280;56038;46.080;11.116;2022-10-16T19:55:46;100297.56;;;17.46;66.28
68988;BME280;56038;46.080;11.116;2022-10-16T20:00:50;100309.78;;;17.31;66.52
68988;BME280;56038;46.080;11.116;2022-10-16T20:05:55;100319.06;;;17.22;66.75
68988;BME280;56038;46.080;11.116;2022-10-16T20:10:57;100328.16;;;17.17;66.80
68988;BME280;56038;46.080;11.116;2022-10-16T20:16:01;100332.22;;;17.06;67.79
68988;BME280;56038;46.080;11.116;2022-10-16T20:21:08;100341.75;;;17.09;67.26
68988;BME280;56038;46.080;11.116;2022-10-16T20:26:10;100340.97;;;17.07;67.07
68988;BME280;56038;46.080;11.116;2022-10-16T20:31:16;100357.75;;;17.06;66.87
68988;BME280;56038;46.080;11.116;2022-10-16T20:36:23;100354.03;;;16.93;67.49
68988;BME280;56038;46.080;11.116;2022-10-16T20:41:26;100363.16;;;16.86;67.69
68988;BME280;56038;46.080;11.116;2022-10-16T20:46:29;100366.66;;;16.86;67.88
68988;BME280;56038;46.080;11.116;2022-10-16T20:51:31;100371.72;;;16.73;68.18
68988;BME280;56038;46.080;11.116;2022-10-16T20:56:34;100371.72;;;16.73;68.34
68988;BME280;56038;46.080;11.116;2022-10-16T21:01:39;100370.84;;;16.54;68.70
68988;BME280;56038;46.080;11.116;2022-10-16T21:06:41;100369.72;;;16.60;68.57
68988;BME280;56038;46.080;11.116;2022-10-16T21:11:44;100380.47;;;16.55;68.51
68988;BME280;56038;46.080;11.116;2022-10-16T21:16:47;100394.97;;;16.46;69.17
68988;BME280;56038;46.080;11.116;2022-10-16T21:21:50;100398.81;;;16.39;69.09
68988;BME280;56038;46.080;11.116;2022-10-16T21:26:52;100406.25;;;16.31;69.47
68988;BME280;56038;46.080;11.116;2022-10-16T21:31:55;100407.25;;;16.29;69.54
68988;BME280;56038;46.080;11.116;2022-10-16T21:37:00;100414.38;;;16.27;69.61
68988;BME280;56038;46.080;11.116;2022-10-16T21:42:01;100422.56;;;16.21;69.60
68988;BME280;56038;46.080;11.116;2022-10-16T21:47:04;100428.91;;;16.16;70.10
68988;BME280;56038;46.080;11.116;2022-10-16T21:52:06;100433.63;;;16.10;70.24
68988;BME280;56038;46.080;11.116;2022-10-16T21:57:08;100437.22;;;16.07;70.00
68988;BME280;56038;46.080;11.116;2022-10-16T22:02:11;100439.44;;;15.98;71.19
68988;BME280;56038;46.080;11.116;2022-10-16T22:07:13;100433.66;;;15.90;70.77
68988;BME280;56038;46.080;11.116;2022-10-16T22:12:15;100447.81;;;15.87;71.03
68988;BME280;56038;46.080;11.116;2022-10-16T22:17:20;100456.13;;;15.78;71.31
68988;BME280;56038;46.080;11.116;2022-10-16T22:22:22;100453.97;;;15.67;71.51
68988;BME280;56038;46.080;11.116;2022-10-16T22:27:24;100459.47;;;15.63;71.80
68988;BME280;56038;46.080;11.116;2022-10-16T22:32:27;100461.16;;;15.64;71.88
68988;BME280;56038;46.080;11.116;2022-10-16T22:37:28;100456.25;;;15.54;72.11
68988;BME280;56038;46.080;11.116;2022-10-16T22:42:30;100457.19;;;15.53;72.40
68988;BME280;56038;46.080;11.116;2022-10-16T22:47:33;100467.84;;;15.50;72.08
68988;BME280;56038;46.080;11.116;2022-10-16T22:52:35;100463.22;;;15.55;72.05
68988;BME280;56038;46.080;11.116;2022-10-16T22:57:38;100466.06;;;15.51;72.06
68988;BME280;56038;46.080;11.116;2022-10-16T23:02:41;100466.00;;;15.52;71.81
68988;BME280;56038;46.080;11.116;2022-10-16T23:07:43;100473.50;;;15.41;72.17
68988;BME280;56038;46.080;11.116;2022-10-16T23:12:45;100471.72;;;15.42;71.72
68988;BME280;56038;46.080;11.116;2022-10-16T23:17:49;100487.44;;;15.43;72.10
68988;BME280;56038;46.080;11.116;2022-10-16T23:22:50;100477.97;;;15.39;71.82
68988;BME280;56038;46.080;11.116;2022-10-16T23:27:53;100475.28;;;15.41;71.99
68988;BME280;56038;46.080;11.116;2022-10-16T23:32:56;100481.41;;;15.41;72.06
68988;BME280;56038;46.080;11.116;2022-10-16T23:37:58;100495.47;;;15.40;72.08
68988;BME280;56038;46.080;11.116;2022-10-16T23:42:59;100488.03;;;15.29;72.58
68988;BME280;56038;46.080;11.116;2022-10-16T23:48:02;100489.78;;;15.29;72.22
68988;BME280;56038;46.080;11.116;2022-10-16T23:53:04;100491.13;;;15.19;72.95
68988;BME280;56038;46.080;11.116;2022-10-16T23:58:06;100488.22;;;15.25;72.63
